sensor_id;sensor_type;location;lat;lon;timestamp;temperature;humidity
70947;DHT22;58605;48.700;8.760;2022-08-18T00:00:25;19.50;99.90
70947;DHT22;58605;48.700;8.760;2022-08-18T00:02:51;19.40;99.90
70947;DHT22;58605;48.700;8.760;2022-08-18T00:05:20;19.40;99.90
70947;DHT22;58605;48.700;8.760;2022-08-18T00:07:46;19.50;99.90
70947;DHT22;58605;48.700;8.760;2022-08-18T00:10:12;19.50;99.90
70947;DHT22;58605;48.700;8.760;2022-08-18T00:12:40;19.40;99.90
70947;DHT22;58605;48.700;8.760;2022-08-18T00:15:11;19.40;99.90
70947;DHT22;58605;48.700;8.760;2022-08-18T00:17:38;19.40;99.90
70947;DHT22;58605;48.700;8.760;2022-08-18T00:20:07;19.40;99.90
70947;DHT22;58605;48.700;8.760;2022-08-18T00:22:35;19.40;99.90
70947;DHT22;58605;48.700;8.760;2022-08-18T00:25:03;19.40;99.90
70947;DHT22;58605;48.700;8.760;2022-08-18T00:27:30;19.40;99.90
70947;DHT22;58605;48.700;8.760;2022-08-18T00:29:58;19.50;99.90
70947;DHT22;58605;48.700;8.760;2022-08-18T00:32:27;19.30;99.90
70947;DHT22;58605;48.700;8.760;2022-08-18T00:34:54;19.10;99.90
70947;DHT22;58605;48.700;8.760;2022-08-18T00:37:20;19.00;99.90
70947;DHT22;58605;48.700;8.760;2022-08-18T00:39:49;18.90;99.90
70947;DHT22;58605;48.700;8.760;2022-08-18T00:42:18;18.80;99.90
70947;DHT22;58605;48.700;8.760;2022-08-18T00:44:44;18.80;99.90
70947;DHT22;58605;48.700;8.760;2022-08-18T00:47:11;18.70;99.90
70947;DHT22;58605;48.700;8.760;2022-08-18T00:49:38;18.70;99.90
70947;DHT22;58605;48.700;8.760;2022-08-18T00:52:05;18.60;99.90
70947;DHT22;58605;48.700;8.760;2022-08-18T00:54:32;18.70;99.90
70947;DHT22;58605;48.700;8.760;2022-08-18T00:57:03;18.60;99.90
70947;DHT22;58605;48.700;8.760;2022-08-18T00:59:35;18.50;99.90
70947;DHT22;58605;48.700;8.760;2022-08-18T01:02:04;18.50;99.90
70947;DHT22;58605;48.700;8.760;2022-08-18T01:04:34;18.60;99.90
70947;DHT22;58605;48.700;8.760;2022-08-18T01:07:06;18.80;99.90
70947;DHT22;58605;48.700;8.760;2022-08-18T01:09:35;18.80;99.90
70947;DHT22;58605;48.700;8.760;2022-08-18T01:12:03;18.80;99.90
70947;DHT22;58605;48.700;8.760;2022-08-18T01:14:29;18.70;99.90
70947;DHT22;58605;48.700;8.760;2022-08-18T01:16:55;18.70;99.90
70947;DHT22;58605;48.700;8.760;2022-08-18T01:19:40;18.60;99.90
70947;DHT22;58605;48.700;8.760;2022-08-18T01:22:27;18.50;99.90
70947;DHT22;58605;48.700;8.760;2022-08-18T01:24:57;18.60;99.90
70947;DHT22;58605;48.700;8.760;2022-08-18T01:27:42;18.50;99.90
70947;DHT22;58605;48.700;8.760;2022-08-18T01:30:11;18.40;99.90
70947;DHT22;58605;48.700;8.760;2022-08-18T01:32:39;18.40;99.90
70947;DHT22;58605;48.700;8.760;2022-08-18T01:35:14;18.40;99.90
70947;DHT22;58605;48.700;8.760;2022-08-18T01:37:42;18.40;99.90
70947;DHT22;58605;48.700;8.760;2022-08-18T01:40:12;18.40;99.90
70947;DHT22;58605;48.700;8.760;2022-08-18T01:42:40;18.30;99.90
70947;DHT22;58605;48.700;8.760;2022-08-18T01:45:09;18.20;99.90
70947;DHT22;58605;48.700;8.760;2022-08-18T01:47:35;18.10;99.90
70947;DHT22;58605;48.700;8.760;2022-08-18T01:50:03;18.10;99.90
70947;DHT22;58605;48.700;8.760;2022-08-18T01:52:30;18.10;99.90
70947;DHT22;58605;48.700;8.760;2022-08-18T01:54:56;18.10;99.90
70947;DHT22;58605;48.700;8.760;2022-08-18T01:57:35;18.20;99.90
70947;DHT22;58605;48.700;8.760;2022-08-18T02:00:04;18.20;99.90
70947;DHT22;58605;48.700;8.760;2022-08-18T02:02:32;18.30;99.90
70947;DHT22;58605;48.700;8.760;2022-08-18T02:05:00;18.40;99.90
70947;DHT22;58605;48.700;8.760;2022-08-18T02:07:27;18.60;99.90
70947;DHT22;58605;48.700;8.760;2022-08-18T02:09:53;18.60;99.90
70947;DHT22;58605;48.700;8.760;2022-08-18T02:12:19;18.60;99.90
70947;DHT22;58605;48.700;8.760;2022-08-18T02:14:47;18.50;99.90
70947;DHT22;58605;48.700;8.760;2022-08-18T02:17:13;18.40;99.90
70947;DHT22;58605;48.700;8.760;2022-08-18T02:19:42;18.40;99.90
70947;DHT22;58605;48.700;8.760;2022-08-18T02:22:10;18.30;99.90
70947;DHT22;58605;48.700;8.760;2022-08-18T02:24:36;18.30;99.90
70947;DHT22;58605;48.700;8.760;2022-08-18T02:27:03;18.30;99.90
70947;DHT22;58605;48.700;8.760;2022-08-18T02:29:29;18.20;99.90
70947;DHT22;58605;48.700;8.760;2022-08-18T02:31:57;18.20;99.90
70947;DHT22;58605;48.700;8.760;2022-08-18T02:34:23;18.10;99.90
70947;DHT22;58605;48.700;8.760;2022-08-18T02:36:50;18.10;99.90
70947;DHT22;58605;48.700;8.760;2022-08-18T02:39:16;18.10;99.90
70947;DHT22;58605;48.700;8.760;2022-08-18T02:41:43;18.10;99.90
70947;DHT22;58605;48.700;8.760;2022-08-18T02:44:09;18.10;99.90
70947;DHT22;58605;48.700;8.760;2022-08-18T02:46:36;18.10;99.90
70947;DHT22;58605;48.700;8.760;2022-08-18T02:49:04;18.10;99.90
70947;DHT22;58605;48.700;8.760;2022-08-18T02:51:32;18.10;99.90
70947;DHT22;58605;48.700;8.760;2022-08-18T02:53:58;18.10;99.90
70947;DHT22;58605;48.700;8.760;2022-08-18T02:56:27;18.20;99.90
70947;DHT22;58605;48.700;8.760;2022-08-18T02:58:55;18.20;99.90
70947;DHT22;58605;48.700;8.760;2022-08-18T03:01:22;18.30;99.90
70947;DHT22;58605;48.700;8.760;2022-08-18T03:03:51;18.10;99.90
70947;DHT22;58605;48.700;8.760;2022-08-18T03:06:19;18.10;99.90
70947;DHT22;58605;48.700;8.760;2022-08-18T03:08:45;18.00;99.90
70947;DHT22;58605;48.700;8.760;2022-08-18T03:11:15;18.00;99.90
70947;DHT22;58605;48.700;8.760;2022-08-18T03:13:41;17.90;99.90
70947;DHT22;58605;48.700;8.760;2022-08-18T03:16:08;17.90;99.90
70947;DHT22;58605;48.700;8.760;2022-08-18T03:18:34;17.90;99.90
70947;DHT22;58605;48.700;8.760;2022-08-18T03:21:04;17.90;99.90
70947;DHT22;58605;48.700;8.760;2022-08-18T03:23:32;17.90;99.90
70947;DHT22;58605;48.700;8.760;2022-08-18T03:25:58;18.00;99.90
70947;DHT22;58605;48.700;8.760;2022-08-18T03:28:24;18.10;99.90
70947;DHT22;58605;48.700;8.760;2022-08-18T03:30:50;18.20;99.90
70947;DHT22;58605;48.700;8.760;2022-08-18T03:33:16;18.30;99.90
70947;DHT22;58605;48.700;8.760;2022-08-18T03:35:42;18.40;99.90
70947;DHT22;58605;48.700;8.760;2022-08-18T03:38:08;18.40;99.90
70947;DHT22;58605;48.700;8.760;2022-08-18T03:40:36;18.40;99.90
70947;DHT22;58605;48.700;8.760;2022-08-18T03:43:03;18.60;99.90
70947;DHT22;58605;48.700;8.760;2022-08-18T03:45:32;18.70;99.90
70947;DHT22;58605;48.700;8.760;2022-08-18T03:47:58;18.80;99.90
70947;DHT22;58605;48.700;8.760;2022-08-18T03:50:25;18.70;99.90
70947;DHT22;58605;48.700;8.760;2022-08-18T03:52:51;18.60;99.90
70947;DHT22;58605;48.700;8.760;2022-08-18T03:55:18;18.40;99.90
70947;DHT22;58605;48.700;8.760;2022-08-18T03:57:46;18.40;99.90
70947;DHT22;58605;48.700;8.760;2022-08-18T04:00:12;18.30;99.90
70947;DHT22;58605;48.700;8.760;2022-08-18T04:02:39;18.20;99.90
70947;DHT22;58605;48.700;8.760;2022-08-18T04:05:06;18.10;99.90
70947;DHT22;58605;48.700;8.760;2022-08-18T04:07:32;18.10;99.90
70947;DHT22;58605;48.700;8.760;2022-08-18T04:09:59;18.10;99.90
70947;DHT22;58605;48.700;8.760;2022-08-18T04:12:25;18.10;99.90
70947;DHT22;58605;48.700;8.760;2022-08-18T04:14:52;18.10;99.90
70947;DHT22;58605;48.700;8.760;2022-08-18T04:17:20;18.00;99.90
70947;DHT22;58605;48.700;8.760;2022-08-18T04:19:50;18.00;99.90
70947;DHT22;58605;48.700;8.760;2022-08-18T04:22:16;18.00;99.90
70947;DHT22;58605;48.700;8.760;2022-08-18T04:24:42;18.00;99.90
70947;DHT22;58605;48.700;8.760;2022-08-18T04:27:09;18.00;99.90
70947;DHT22;58605;48.700;8.760;2022-08-18T04:29:35;18.00;99.90
70947;DHT22;58605;48.700;8.760;2022-08-18T04:32:03;18.20;99.90
70947;DHT22;58605;48.700;8.760;2022-08-18T04:34:30;18.30;99.90
70947;DHT22;58605;48.700;8.760;2022-08-18T04:36:58;18.30;99.90
70947;DHT22;58605;48.700;8.760;2022-08-18T04:39:25;18.30;99.90
70947;DHT22;58605;48.700;8.760;2022-08-18T04:41:51;18.20;99.90
70947;DHT22;58605;48.700;8.760;2022-08-18T04:44:18;18.30;99.90
70947;DHT22;58605;48.700;8.760;2022-08-18T04:46:46;18.20;99.90
70947;DHT22;58605;48.700;8.760;2022-08-18T04:49:15;18.20;99.90
70947;DHT22;58605;48.700;8.760;2022-08-18T04:51:44;18.00;99.90
70947;DHT22;58605;48.700;8.760;2022-08-18T04:54:30;18.00;99.90
70947;DHT22;58605;48.700;8.760;2022-08-18T04:56:56;18.10;99.90
70947;DHT22;58605;48.700;8.760;2022-08-18T04:59:22;18.20;99.90
70947;DHT22;58605;48.700;8.760;2022-08-18T05:01:50;18.20;99.90
70947;DHT22;58605;48.700;8.760;2022-08-18T05:04:17;18.10;99.90
70947;DHT22;58605;48.700;8.760;2022-08-18T05:06:45;18.20;99.90
70947;DHT22;58605;48.700;8.760;2022-08-18T05:09:12;18.20;99.90
70947;DHT22;58605;48.700;8.760;2022-08-18T05:11:40;18.20;99.90
70947;DHT22;58605;48.700;8.760;2022-08-18T05:14:09;18.30;99.90
70947;DHT22;58605;48.700;8.760;2022-08-18T05:16:35;18.40;99.90
70947;DHT22;58605;48.700;8.760;2022-08-18T05:19:01;18.30;99.90
70947;DHT22;58605;48.700;8.760;2022-08-18T05:21:29;18.20;99.90
70947;DHT22;58605;48.700;8.760;2022-08-18T05:23:55;18.20;99.90
70947;DHT22;58605;48.700;8.760;2022-08-18T05:26:23;18.10;99.90
70947;DHT22;58605;48.700;8.760;2022-08-18T05:28:50;18.00;99.90
70947;DHT22;58605;48.700;8.760;2022-08-18T05:31:18;18.00;99.90
70947;DHT22;58605;48.700;8.760;2022-08-18T05:33:45;18.00;99.90
70947;DHT22;58605;48.700;8.760;2022-08-18T05:36:21;18.00;99.90
70947;DHT22;58605;48.700;8.760;2022-08-18T05:39:01;18.10;99.90
70947;DHT22;58605;48.700;8.760;2022-08-18T05:41:31;18.10;99.90
70947;DHT22;58605;48.700;8.760;2022-08-18T05:43:59;18.10;99.90
70947;DHT22;58605;48.700;8.760;2022-08-18T05:46:31;18.20;99.90
70947;DHT22;58605;48.700;8.760;2022-08-18T05:48:59;18.20;99.90
70947;DHT22;58605;48.700;8.760;2022-08-18T05:51:30;18.40;99.90
70947;DHT22;58605;48.700;8.760;2022-08-18T05:54:01;18.40;99.90
70947;DHT22;58605;48.700;8.760;2022-08-18T05:56:46;18.50;99.90
70947;DHT22;58605;48.700;8.760;2022-08-18T05:59:22;18.40;99.90
70947;DHT22;58605;48.700;8.760;2022-08-18T06:01:55;18.50;99.90
70947;DHT22;58605;48.700;8.760;2022-08-18T06:04:33;18.60;99.90
70947;DHT22;58605;48.700;8.760;2022-08-18T06:07:06;18.80;99.90
70947;DHT22;58605;48.700;8.760;2022-08-18T06:09:37;18.80;99.90
70947;DHT22;58605;48.700;8.760;2022-08-18T06:12:12;18.90;99.90
70947;DHT22;58605;48.700;8.760;2022-08-18T06:14:41;19.00;99.90
70947;DHT22;58605;48.700;8.760;2022-08-18T06:17:17;19.10;99.90
70947;DHT22;58605;48.700;8.760;2022-08-18T06:19:51;19.20;99.90
70947;DHT22;58605;48.700;8.760;2022-08-18T06:22:29;19.30;99.90
70947;DHT22;58605;48.700;8.760;2022-08-18T06:25:06;19.50;99.90
70947;DHT22;58605;48.700;8.760;2022-08-18T06:27:41;19.70;99.90
70947;DHT22;58605;48.700;8.760;2022-08-18T06:30:14;19.80;99.90
70947;DHT22;58605;48.700;8.760;2022-08-18T06:33:00;19.80;99.90
70947;DHT22;58605;48.700;8.760;2022-08-18T06:35:33;19.90;99.90
70947;DHT22;58605;48.700;8.760;2022-08-18T06:38:10;19.90;99.90
70947;DHT22;58605;48.700;8.760;2022-08-18T06:41:09;20.00;99.90
70947;DHT22;58605;48.700;8.760;2022-08-18T06:43:37;20.00;99.90
70947;DHT22;58605;48.700;8.760;2022-08-18T06:46:09;19.90;99.90
70947;DHT22;58605;48.700;8.760;2022-08-18T06:48:41;19.80;99.90
70947;DHT22;58605;48.700;8.760;2022-08-18T06:51:11;19.80;99.90
70947;DHT22;58605;48.700;8.760;2022-08-18T06:53:54;19.90;99.90
70947;DHT22;58605;48.700;8.760;2022-08-18T06:56:26;19.90;99.90
70947;DHT22;58605;48.700;8.760;2022-08-18T06:58:53;20.00;99.90
70947;DHT22;58605;48.700;8.760;2022-08-18T07:01:21;20.20;99.90
70947;DHT22;58605;48.700;8.760;2022-08-18T07:03:51;20.20;99.90
70947;DHT22;58605;48.700;8.760;2022-08-18T07:06:29;20.30;99.90
70947;DHT22;58605;48.700;8.760;2022-08-18T07:09:17;20.40;99.90
70947;DHT22;58605;48.700;8.760;2022-08-18T07:11:58;20.50;99.90
70947;DHT22;58605;48.700;8.760;2022-08-18T07:14:24;20.50;99.90
70947;DHT22;58605;48.700;8.760;2022-08-18T07:17:05;20.50;99.90
70947;DHT22;58605;48.700;8.760;2022-08-18T07:19:32;20.50;99.90
70947;DHT22;58605;48.700;8.760;2022-08-18T07:22:02;20.50;99.90
70947;DHT22;58605;48.700;8.760;2022-08-18T07:24:31;20.40;99.90
70947;DHT22;58605;48.700;8.760;2022-08-18T07:27:04;20.40;99.90
70947;DHT22;58605;48.700;8.760;2022-08-18T07:29:32;20.60;99.90
70947;DHT22;58605;48.700;8.760;2022-08-18T07:32:01;20.70;99.90
70947;DHT22;58605;48.700;8.760;2022-08-18T07:34:31;20.70;99.90
70947;DHT22;58605;48.700;8.760;2022-08-18T07:37:04;20.50;99.90
70947;DHT22;58605;48.700;8.760;2022-08-18T07:39:35;20.30;99.90
70947;DHT22;58605;48.700;8.760;2022-08-18T07:42:09;20.10;99.90
70947;DHT22;58605;48.700;8.760;2022-08-18T07:44:42;20.10;99.90
70947;DHT22;58605;48.700;8.760;2022-08-18T07:47:15;20.10;99.90
70947;DHT22;58605;48.700;8.760;2022-08-18T07:49:42;20.10;99.90
70947;DHT22;58605;48.700;8.760;2022-08-18T07:52:15;20.10;99.90
70947;DHT22;58605;48.700;8.760;2022-08-18T07:54:49;20.00;99.90
70947;DHT22;58605;48.700;8.760;2022-08-18T07:57:29;19.80;99.90
70947;DHT22;58605;48.700;8.760;2022-08-18T08:00:08;19.60;99.90
70947;DHT22;58605;48.700;8.760;2022-08-18T08:02:43;19.70;99.90
70947;DHT22;58605;48.700;8.760;2022-08-18T08:05:18;19.70;99.90
70947;DHT22;58605;48.700;8.760;2022-08-18T08:07:52;19.80;99.90
70947;DHT22;58605;48.700;8.760;2022-08-18T08:10:31;20.00;99.90
70947;DHT22;58605;48.700;8.760;2022-08-18T08:13:09;20.10;99.90
70947;DHT22;58605;48.700;8.760;2022-08-18T08:15:46;20.20;99.90
70947;DHT22;58605;48.700;8.760;2022-08-18T08:18:17;20.30;99.90
70947;DHT22;58605;48.700;8.760;2022-08-18T08:20:51;20.20;99.90
70947;DHT22;58605;48.700;8.760;2022-08-18T08:23:27;20.10;99.90
70947;DHT22;58605;48.700;8.760;2022-08-18T08:26:16;20.10;99.90
70947;DHT22;58605;48.700;8.760;2022-08-18T08:28:50;20.10;99.90
70947;DHT22;58605;48.700;8.760;2022-08-18T08:31:24;20.20;99.90
70947;DHT22;58605;48.700;8.760;2022-08-18T08:33:57;20.30;99.90
70947;DHT22;58605;48.700;8.760;2022-08-18T08:36:30;20.30;99.90
70947;DHT22;58605;48.700;8.760;2022-08-18T08:39:02;20.30;99.90
70947;DHT22;58605;48.700;8.760;2022-08-18T08:41:33;20.30;99.90
70947;DHT22;58605;48.700;8.760;2022-08-18T08:44:07;20.40;99.90
70947;DHT22;58605;48.700;8.760;2022-08-18T08:46:42;20.50;99.90
70947;DHT22;58605;48.700;8.760;2022-08-18T08:49:27;20.40;99.90
70947;DHT22;58605;48.700;8.760;2022-08-18T08:51:59;20.40;99.90
70947;DHT22;58605;48.700;8.760;2022-08-18T08:54:39;20.40;99.90
70947;DHT22;58605;48.700;8.760;2022-08-18T08:57:09;20.40;99.90
70947;DHT22;58605;48.700;8.760;2022-08-18T08:59:38;20.50;99.90
70947;DHT22;58605;48.700;8.760;2022-08-18T09:05:07;20.60;99.90
70947;DHT22;58605;48.700;8.760;2022-08-18T09:10:52;20.70;99.90
70947;DHT22;58605;48.700;8.760;2022-08-18T09:16:26;20.80;99.90
70947;DHT22;58605;48.700;8.760;2022-08-18T09:21:59;20.90;99.90
70947;DHT22;58605;48.700;8.760;2022-08-18T09:24:28;20.90;99.90
70947;DHT22;58605;48.700;8.760;2022-08-18T09:27:11;21.00;99.90
70947;DHT22;58605;48.700;8.760;2022-08-18T09:29:48;21.00;99.90
70947;DHT22;58605;48.700;8.760;2022-08-18T09:32:51;21.10;99.90
70947;DHT22;58605;48.700;8.760;2022-08-18T09:35:33;21.20;99.90
70947;DHT22;58605;48.700;8.760;2022-08-18T09:38:08;21.40;99.90
70947;DHT22;58605;48.700;8.760;2022-08-18T09:40:57;21.50;99.90
70947;DHT22;58605;48.700;8.760;2022-08-18T09:43:54;21.60;99.30
70947;DHT22;58605;48.700;8.760;2022-08-18T09:46:55;21.70;99.50
70947;DHT22;58605;48.700;8.760;2022-08-18T09:49:50;21.70;98.60
70947;DHT22;58605;48.700;8.760;2022-08-18T09:55:51;21.50;98.20
70947;DHT22;58605;48.700;8.760;2022-08-18T09:58:31;21.70;99.90
70947;DHT22;58605;48.700;8.760;2022-08-18T10:01:34;21.90;98.30
70947;DHT22;58605;48.700;8.760;2022-08-18T10:04:27;21.60;96.80
70947;DHT22;58605;48.700;8.760;2022-08-18T10:07:13;21.80;99.30
70947;DHT22;58605;48.700;8.760;2022-08-18T10:09:54;21.70;96.50
70947;DHT22;58605;48.700;8.760;2022-08-18T10:12:51;21.70;99.90
70947;DHT22;58605;48.700;8.760;2022-08-18T10:15:36;21.80;96.60
70947;DHT22;58605;48.700;8.760;2022-08-18T10:18:32;22.20;96.50
70947;DHT22;58605;48.700;8.760;2022-08-18T10:21:09;22.30;96.00
70947;DHT22;58605;48.700;8.760;2022-08-18T10:23:48;22.60;95.30
70947;DHT22;58605;48.700;8.760;2022-08-18T10:29:43;22.60;93.70
70947;DHT22;58605;48.700;8.760;2022-08-18T10:38:36;22.60;94.70
70947;DHT22;58605;48.700;8.760;2022-08-18T10:41:07;22.40;95.20
70947;DHT22;58605;48.700;8.760;2022-08-18T10:43:40;22.30;96.30
70947;DHT22;58605;48.700;8.760;2022-08-18T10:46:14;22.20;96.00
70947;DHT22;58605;48.700;8.760;2022-08-18T10:48:41;22.10;97.00
70947;DHT22;58605;48.700;8.760;2022-08-18T10:51:15;22.20;95.40
70947;DHT22;58605;48.700;8.760;2022-08-18T10:53:45;22.20;95.10
70947;DHT22;58605;48.700;8.760;2022-08-18T10:56:27;22.20;94.50
70947;DHT22;58605;48.700;8.760;2022-08-18T10:59:13;22.00;94.80
70947;DHT22;58605;48.700;8.760;2022-08-18T11:02:00;22.00;95.50
70947;DHT22;58605;48.700;8.760;2022-08-18T11:04:32;22.30;96.40
70947;DHT22;58605;48.700;8.760;2022-08-18T11:07:04;22.40;95.30
70947;DHT22;58605;48.700;8.760;2022-08-18T11:09:32;22.40;93.20
70947;DHT22;58605;48.700;8.760;2022-08-18T11:12:02;22.30;93.30
70947;DHT22;58605;48.700;8.760;2022-08-18T11:17:32;22.00;94.20
70947;DHT22;58605;48.700;8.760;2022-08-18T11:20:01;22.00;93.90
70947;DHT22;58605;48.700;8.760;2022-08-18T11:22:33;22.00;93.70
70947;DHT22;58605;48.700;8.760;2022-08-18T11:25:00;22.10;93.10
70947;DHT22;58605;48.700;8.760;2022-08-18T11:27:31;22.10;93.40
70947;DHT22;58605;48.700;8.760;2022-08-18T11:30:02;22.00;93.20
70947;DHT22;58605;48.700;8.760;2022-08-18T11:32:31;22.00;92.70
70947;DHT22;58605;48.700;8.760;2022-08-18T11:35:05;22.00;93.80
70947;DHT22;58605;48.700;8.760;2022-08-18T11:37:35;22.00;93.60
70947;DHT22;58605;48.700;8.760;2022-08-18T11:40:32;22.20;93.30
70947;DHT22;58605;48.700;8.760;2022-08-18T11:43:05;22.30;93.30
70947;DHT22;58605;48.700;8.760;2022-08-18T11:45:50;22.50;93.30
70947;DHT22;58605;48.700;8.760;2022-08-18T11:48:20;22.60;92.20
70947;DHT22;58605;48.700;8.760;2022-08-18T11:50:58;22.80;91.50
70947;DHT22;58605;48.700;8.760;2022-08-18T11:53:39;22.80;90.60
70947;DHT22;58605;48.700;8.760;2022-08-18T11:56:16;22.80;90.90
70947;DHT22;58605;48.700;8.760;2022-08-18T11:58:46;22.50;90.60
70947;DHT22;58605;48.700;8.760;2022-08-18T12:01:28;22.50;91.20
70947;DHT22;58605;48.700;8.760;2022-08-18T12:04:06;22.80;89.80
70947;DHT22;58605;48.700;8.760;2022-08-18T12:06:33;22.90;90.40
70947;DHT22;58605;48.700;8.760;2022-08-18T12:09:14;23.10;87.50
70947;DHT22;58605;48.700;8.760;2022-08-18T12:11:50;23.20;84.60
70947;DHT22;58605;48.700;8.760;2022-08-18T12:14:20;23.20;85.90
70947;DHT22;58605;48.700;8.760;2022-08-18T12:16:53;23.30;85.80
70947;DHT22;58605;48.700;8.760;2022-08-18T12:19:20;23.30;84.30
70947;DHT22;58605;48.700;8.760;2022-08-18T12:21:50;23.30;84.20
70947;DHT22;58605;48.700;8.760;2022-08-18T12:24:20;23.30;84.60
70947;DHT22;58605;48.700;8.760;2022-08-18T12:26:47;23.30;82.50
70947;DHT22;58605;48.700;8.760;2022-08-18T12:29:13;23.30;82.50
70947;DHT22;58605;48.700;8.760;2022-08-18T12:31:42;23.30;83.30
70947;DHT22;58605;48.700;8.760;2022-08-18T12:34:15;23.30;82.50
70947;DHT22;58605;48.700;8.760;2022-08-18T12:36:42;23.20;82.20
70947;DHT22;58605;48.700;8.760;2022-08-18T12:39:14;23.30;82.20
70947;DHT22;58605;48.700;8.760;2022-08-18T12:41:40;23.30;81.40
70947;DHT22;58605;48.700;8.760;2022-08-18T12:44:06;23.30;82.30
70947;DHT22;58605;48.700;8.760;2022-08-18T12:46:32;23.50;82.20
70947;DHT22;58605;48.700;8.760;2022-08-18T12:49:00;23.60;82.70
70947;DHT22;58605;48.700;8.760;2022-08-18T12:51:27;23.70;80.00
70947;DHT22;58605;48.700;8.760;2022-08-18T12:53:53;23.70;81.30
70947;DHT22;58605;48.700;8.760;2022-08-18T12:56:22;23.70;78.60
70947;DHT22;58605;48.700;8.760;2022-08-18T12:58:49;23.70;79.10
70947;DHT22;58605;48.700;8.760;2022-08-18T13:01:16;23.60;79.70
70947;DHT22;58605;48.700;8.760;2022-08-18T13:03:42;23.70;80.50
70947;DHT22;58605;48.700;8.760;2022-08-18T13:06:11;23.80;79.40
70947;DHT22;58605;48.700;8.760;2022-08-18T13:08:38;23.90;77.80
70947;DHT22;58605;48.700;8.760;2022-08-18T13:11:04;23.80;76.60
70947;DHT22;58605;48.700;8.760;2022-08-18T13:13:35;23.90;76.20
70947;DHT22;58605;48.700;8.760;2022-08-18T13:16:02;23.90;77.50
70947;DHT22;58605;48.700;8.760;2022-08-18T13:18:28;24.10;76.70
70947;DHT22;58605;48.700;8.760;2022-08-18T13:20:55;24.20;76.00
70947;DHT22;58605;48.700;8.760;2022-08-18T13:23:23;24.40;75.50
70947;DHT22;58605;48.700;8.760;2022-08-18T13:25:50;24.40;73.30
70947;DHT22;58605;48.700;8.760;2022-08-18T13:28:17;24.40;73.10
70947;DHT22;58605;48.700;8.760;2022-08-18T13:30:43;24.30;72.90
70947;DHT22;58605;48.700;8.760;2022-08-18T13:33:10;24.40;72.70
70947;DHT22;58605;48.700;8.760;2022-08-18T13:35:37;24.40;74.00
70947;DHT22;58605;48.700;8.760;2022-08-18T13:38:03;24.50;71.30
70947;DHT22;58605;48.700;8.760;2022-08-18T13:40:31;24.50;71.30
70947;DHT22;58605;48.700;8.760;2022-08-18T13:42:57;24.50;72.40
70947;DHT22;58605;48.700;8.760;2022-08-18T13:45:24;24.50;73.40
70947;DHT22;58605;48.700;8.760;2022-08-18T13:47:51;24.50;73.40
70947;DHT22;58605;48.700;8.760;2022-08-18T13:50:17;24.50;71.80
70947;DHT22;58605;48.700;8.760;2022-08-18T13:52:43;24.30;72.10
70947;DHT22;58605;48.700;8.760;2022-08-18T13:55:11;24.20;72.80
70947;DHT22;58605;48.700;8.760;2022-08-18T13:57:40;24.20;74.20
70947;DHT22;58605;48.700;8.760;2022-08-18T14:00:14;24.30;72.90
70947;DHT22;58605;48.700;8.760;2022-08-18T14:02:41;24.40;73.00
70947;DHT22;58605;48.700;8.760;2022-08-18T14:05:08;24.40;73.30
70947;DHT22;58605;48.700;8.760;2022-08-18T14:07:35;24.60;74.10
70947;DHT22;58605;48.700;8.760;2022-08-18T14:10:01;24.70;72.60
70947;DHT22;58605;48.700;8.760;2022-08-18T14:12:27;24.60;73.20
70947;DHT22;58605;48.700;8.760;2022-08-18T14:14:55;24.60;73.10
70947;DHT22;58605;48.700;8.760;2022-08-18T14:17:23;24.60;72.80
70947;DHT22;58605;48.700;8.760;2022-08-18T14:19:50;24.60;73.10
70947;DHT22;58605;48.700;8.760;2022-08-18T14:22:35;24.50;72.90
70947;DHT22;58605;48.700;8.760;2022-08-18T14:25:19;24.50;72.40
70947;DHT22;58605;48.700;8.760;2022-08-18T14:28:04;24.40;73.20
70947;DHT22;58605;48.700;8.760;2022-08-18T14:30:31;24.10;74.00
70947;DHT22;58605;48.700;8.760;2022-08-18T14:32:58;24.10;74.70
70947;DHT22;58605;48.700;8.760;2022-08-18T14:35:24;24.20;73.00
70947;DHT22;58605;48.700;8.760;2022-08-18T14:37:50;24.20;73.60
70947;DHT22;58605;48.700;8.760;2022-08-18T14:40:17;24.40;74.10
70947;DHT22;58605;48.700;8.760;2022-08-18T14:42:45;24.40;74.80
70947;DHT22;58605;48.700;8.760;2022-08-18T14:45:11;24.60;74.60
70947;DHT22;58605;48.700;8.760;2022-08-18T14:47:41;24.60;73.40
70947;DHT22;58605;48.700;8.760;2022-08-18T14:50:08;24.30;74.60
70947;DHT22;58605;48.700;8.760;2022-08-18T14:52:39;23.90;74.70
70947;DHT22;58605;48.700;8.760;2022-08-18T14:55:06;24.00;76.20
70947;DHT22;58605;48.700;8.760;2022-08-18T14:57:33;24.20;75.10
70947;DHT22;58605;48.700;8.760;2022-08-18T14:59:59;23.90;74.30
70947;DHT22;58605;48.700;8.760;2022-08-18T15:02:25;23.60;75.30
70947;DHT22;58605;48.700;8.760;2022-08-18T15:04:53;23.60;75.60
70947;DHT22;58605;48.700;8.760;2022-08-18T15:07:19;23.70;76.90
70947;DHT22;58605;48.700;8.760;2022-08-18T15:09:46;23.90;75.90
70947;DHT22;58605;48.700;8.760;2022-08-18T15:12:12;24.00;75.60
70947;DHT22;58605;48.700;8.760;2022-08-18T15:14:40;23.70;75.30
70947;DHT22;58605;48.700;8.760;2022-08-18T15:17:06;23.80;75.50
70947;DHT22;58605;48.700;8.760;2022-08-18T15:19:32;23.90;75.80
70947;DHT22;58605;48.700;8.760;2022-08-18T15:21:59;24.00;75.10
70947;DHT22;58605;48.700;8.760;2022-08-18T15:24:44;24.20;75.20
70947;DHT22;58605;48.700;8.760;2022-08-18T15:27:34;24.10;76.10
70947;DHT22;58605;48.700;8.760;2022-08-18T15:30:06;24.30;74.20
70947;DHT22;58605;48.700;8.760;2022-08-18T15:32:32;24.30;74.00
70947;DHT22;58605;48.700;8.760;2022-08-18T15:34:58;23.90;74.70
70947;DHT22;58605;48.700;8.760;2022-08-18T15:37:27;24.10;74.90
70947;DHT22;58605;48.700;8.760;2022-08-18T15:40:00;24.00;74.90
70947;DHT22;58605;48.700;8.760;2022-08-18T15:42:27;24.20;74.80
70947;DHT22;58605;48.700;8.760;2022-08-18T15:44:53;24.20;74.90
70947;DHT22;58605;48.700;8.760;2022-08-18T15:47:19;24.20;78.70
70947;DHT22;58605;48.700;8.760;2022-08-18T15:49:45;24.00;81.40
70947;DHT22;58605;48.700;8.760;2022-08-18T15:52:12;23.90;81.30
70947;DHT22;58605;48.700;8.760;2022-08-18T15:54:39;23.80;79.40
70947;DHT22;58605;48.700;8.760;2022-08-18T15:57:05;23.80;81.10
70947;DHT22;58605;48.700;8.760;2022-08-18T15:59:32;23.80;82.10
70947;DHT22;58605;48.700;8.760;2022-08-18T16:01:58;23.80;80.80
70947;DHT22;58605;48.700;8.760;2022-08-18T16:04:25;23.70;85.10
70947;DHT22;58605;48.700;8.760;2022-08-18T16:06:51;23.80;90.30
70947;DHT22;58605;48.700;8.760;2022-08-18T16:09:19;23.80;89.80
70947;DHT22;58605;48.700;8.760;2022-08-18T16:11:47;23.60;85.10
70947;DHT22;58605;48.700;8.760;2022-08-18T16:14:13;23.70;83.20
70947;DHT22;58605;48.700;8.760;2022-08-18T16:16:40;23.70;80.10
70947;DHT22;58605;48.700;8.760;2022-08-18T16:19:06;23.70;78.50
70947;DHT22;58605;48.700;8.760;2022-08-18T16:21:33;23.70;78.70